DIBK

Bouaké Airport

Côte D’Ivoire
METAR DIBK 191100Z 18006KT 9999 BKN011 26/24 Q1016 NOSIG
Observed Flight Rules
Sep-19 @ 11:00 UTC (22 minutes ago) Marginal Visual Flight Rules
Wind Visibility Clouds
180° at 6 knots 10,000+ meters
  • Broken at 1,100' AGL
Temperatures Readings
Current 26°C / 79°F
Dewpoint 24°C / 75°F
Humidity 89%
Altimeter 30" Hg
Pressure 1016 hPa
Elevation 376
METAR DIBK 191100Z 18006KT 9999 BKN011 26/24 Q1016 NOSIG
Observed Flight Rules
Sep-19 @ 11:00 UTC
(22 minutes ago)
MVFR
Wind Visibility
180° at 6 knots 10,000+ meters
Clouds
  • Broken at 1,100' AGL
Temperature Dewpoint
26°C / 79°F 24°C / 75°F
Humidity Altimeter Pressure
89% 30" Hg 1016 hPa